Terminal Aerodrome Forecast
Issued by NWS Austin/San Antonio, TX

Home | Current Version | Previous Version | Text Only | Print | Product List | Glossary On
Versions: 1 2 3 4 5 6 7 8 9 10 11 12 13 14 15 16 17 18 19 20 21 22 23 24 25 26 27 28 29
000
FTUS44 KEWX 201700
TAFSAT
TAF
KSAT 201737Z 2018/2124 15011KT P6SM OVC015
     FM202000 16012KT P6SM BKN025
     FM202200 15014KT P6SM SCT030 BKN040
     FM210400 15007KT P6SM BKN015
     FM210900 16006KT 4SM BR OVC005
     FM211500 18008KT P6SM OVC012
     FM211800 17012KT P6SM SCT030 BKN040=

USA.gov is the U.S. government's official web portal to all federal, state and local government web resources and services.